sensor_id;sensor_type;location;lat;lon;timestamp;pressure;altitude;pressure_sealevel;temperature;humidity
11349;BME280;5729;43.570;27.826;2022-10-17T00:01:44;100502.44;;;10.55;100.00
11349;BME280;5729;43.570;27.826;2022-10-17T00:04:10;100519.72;;;10.63;100.00
11349;BME280;5729;43.570;27.826;2022-10-17T00:06:35;100511.63;;;10.71;100.00
11349;BME280;5729;43.570;27.826;2022-10-17T00:09:01;100520.31;;;10.77;100.00
11349;BME280;5729;43.570;27.826;2022-10-17T00:11:26;100519.84;;;10.83;100.00
11349;BME280;5729;43.570;27.826;2022-10-17T00:13:54;100523.94;;;10.89;100.00
11349;BME280;5729;43.570;27.826;2022-10-17T00:16:25;100515.03;;;10.89;100.00
11349;BME280;5729;43.570;27.826;2022-10-17T00:18:51;100513.88;;;10.99;100.00
11349;BME280;5729;43.570;27.826;2022-10-17T00:21:18;100517.84;;;11.01;100.00
11349;BME280;5729;43.570;27.826;2022-10-17T00:23:44;100502.19;;;10.95;100.00
11349;BME280;5729;43.570;27.826;2022-10-17T00:26:10;100510.81;;;11.09;100.00
11349;BME280;5729;43.570;27.826;2022-10-17T00:28:35;100500.50;;;11.11;100.00
11349;BME280;5729;43.570;27.826;2022-10-17T00:31:03;100501.16;;;11.08;100.00
11349;BME280;5729;43.570;27.826;2022-10-17T00:33:30;100509.72;;;11.10;100.00
11349;BME280;5729;43.570;27.826;2022-10-17T00:36:12;100496.69;;;11.12;100.00
11349;BME280;5729;43.570;27.826;2022-10-17T00:38:39;100507.06;;;11.01;100.00
11349;BME280;5729;43.570;27.826;2022-10-17T00:41:07;100517.84;;;11.01;100.00
11349;BME280;5729;43.570;27.826;2022-10-17T00:46:20;100520.28;;;10.85;100.00
11349;BME280;5729;43.570;27.826;2022-10-17T00:48:47;100520.50;;;10.72;100.00
11349;BME280;5729;43.570;27.826;2022-10-17T00:51:14;100518.53;;;10.89;100.00
11349;BME280;5729;43.570;27.826;2022-10-17T00:53:41;100510.94;;;10.74;100.00
11349;BME280;5729;43.570;27.826;2022-10-17T00:56:07;100507.94;;;10.76;100.00
11349;BME280;5729;43.570;27.826;2022-10-17T00:58:32;100519.41;;;10.64;100.00
11349;BME280;5729;43.570;27.826;2022-10-17T01:00:58;100525.91;;;10.72;100.00
11349;BME280;5729;43.570;27.826;2022-10-17T01:03:23;100526.16;;;10.87;100.00
11349;BME280;5729;43.570;27.826;2022-10-17T01:05:49;100508.13;;;10.71;100.00
11349;BME280;5729;43.570;27.826;2022-10-17T01:08:15;100517.47;;;10.73;100.00
11349;BME280;5729;43.570;27.826;2022-10-17T01:11:04;100522.97;;;10.85;100.00
11349;BME280;5729;43.570;27.826;2022-10-17T01:19:37;100525.31;;;10.96;100.00
11349;BME280;5729;43.570;27.826;2022-10-17T01:22:35;100521.03;;;11.03;100.00
11349;BME280;5729;43.570;27.826;2022-10-17T01:27:59;100514.69;;;10.99;100.00
11349;BME280;5729;43.570;27.826;2022-10-17T01:35:51;100512.59;;;11.05;100.00
11349;BME280;5729;43.570;27.826;2022-10-17T01:38:35;100511.94;;;11.08;100.00
11349;BME280;5729;43.570;27.826;2022-10-17T01:41:15;100508.44;;;11.16;100.00
11349;BME280;5729;43.570;27.826;2022-10-17T01:44:07;100511.50;;;11.06;100.00
11349;BME280;5729;43.570;27.826;2022-10-17T01:46:37;100516.91;;;11.06;100.00
11349;BME280;5729;43.570;27.826;2022-10-17T01:49:07;100514.53;;;10.96;100.00
11349;BME280;5729;43.570;27.826;2022-10-17T01:51:46;100519.41;;;11.11;100.00
11349;BME280;5729;43.570;27.826;2022-10-17T01:54:46;100523.72;;;11.03;100.00
11349;BME280;5729;43.570;27.826;2022-10-17T01:57:35;100520.69;;;11.05;100.00
11349;BME280;5729;43.570;27.826;2022-10-17T02:00:05;100530.38;;;10.97;100.00
11349;BME280;5729;43.570;27.826;2022-10-17T02:02:34;100525.72;;;10.77;100.00
11349;BME280;5729;43.570;27.826;2022-10-17T02:05:02;100529.34;;;10.81;100.00
11349;BME280;5729;43.570;27.826;2022-10-17T02:07:28;100533.16;;;10.80;100.00
11349;BME280;5729;43.570;27.826;2022-10-17T02:09:53;100545.00;;;10.96;100.00
11349;BME280;5729;43.570;27.826;2022-10-17T02:20:31;100561.50;;;11.03;100.00
11349;BME280;5729;43.570;27.826;2022-10-17T02:23:11;100556.56;;;10.97;100.00
11349;BME280;5729;43.570;27.826;2022-10-17T02:25:45;100561.25;;;10.79;100.00
11349;BME280;5729;43.570;27.826;2022-10-17T02:28:29;100561.09;;;10.75;100.00
11349;BME280;5729;43.570;27.826;2022-10-17T02:31:16;100562.84;;;10.71;100.00
11349;BME280;5729;43.570;27.826;2022-10-17T02:33:58;100551.28;;;10.62;100.00
11349;BME280;5729;43.570;27.826;2022-10-17T02:36:31;100562.06;;;10.71;100.00
11349;BME280;5729;43.570;27.826;2022-10-17T02:39:00;100565.56;;;10.54;100.00
11349;BME280;5729;43.570;27.826;2022-10-17T02:41:27;100573.47;;;10.68;100.00
11349;BME280;5729;43.570;27.826;2022-10-17T02:43:54;100568.72;;;10.65;100.00
11349;BME280;5729;43.570;27.826;2022-10-17T02:46:22;100572.66;;;10.76;100.00
11349;BME280;5729;43.570;27.826;2022-10-17T02:49:05;100578.25;;;10.71;100.00
11349;BME280;5729;43.570;27.826;2022-10-17T02:51:41;100577.13;;;10.72;100.00
11349;BME280;5729;43.570;27.826;2022-10-17T02:57:17;100576.19;;;10.59;100.00
11349;BME280;5729;43.570;27.826;2022-10-17T02:59:46;100572.97;;;10.74;100.00
11349;BME280;5729;43.570;27.826;2022-10-17T03:02:13;100577.59;;;10.65;100.00
11349;BME280;5729;43.570;27.826;2022-10-17T03:04:42;100576.78;;;10.73;100.00
11349;BME280;5729;43.570;27.826;2022-10-17T03:07:07;100576.19;;;10.68;100.00
11349;BME280;5729;43.570;27.826;2022-10-17T03:09:33;100586.16;;;10.67;100.00
11349;BME280;5729;43.570;27.826;2022-10-17T03:11:58;100585.34;;;10.75;100.00
11349;BME280;5729;43.570;27.826;2022-10-17T03:14:24;100583.78;;;10.66;100.00
11349;BME280;5729;43.570;27.826;2022-10-17T03:16:49;100588.88;;;10.67;100.00
11349;BME280;5729;43.570;27.826;2022-10-17T03:19:15;100591.75;;;10.45;100.00
11349;BME280;5729;43.570;27.826;2022-10-17T03:21:40;100596.97;;;10.50;100.00
11349;BME280;5729;43.570;27.826;2022-10-17T03:24:06;100599.50;;;10.55;100.00
11349;BME280;5729;43.570;27.826;2022-10-17T03:26:31;100602.38;;;10.41;100.00
11349;BME280;5729;43.570;27.826;2022-10-17T03:28:56;100606.97;;;10.24;100.00
11349;BME280;5729;43.570;27.826;2022-10-17T03:31:22;100596.78;;;10.12;100.00
11349;BME280;5729;43.570;27.826;2022-10-17T03:33:48;100605.69;;;10.30;100.00
11349;BME280;5729;43.570;27.826;2022-10-17T03:36:15;100610.25;;;10.12;100.00
11349;BME280;5729;43.570;27.826;2022-10-17T03:38:42;100605.97;;;10.02;100.00
11349;BME280;5729;43.570;27.826;2022-10-17T03:41:08;100607.72;;;10.07;100.00
11349;BME280;5729;43.570;27.826;2022-10-17T03:43:34;100613.09;;;10.07;100.00
11349;BME280;5729;43.570;27.826;2022-10-17T03:46:00;100613.41;;;9.88;100.00
11349;BME280;5729;43.570;27.826;2022-10-17T03:48:27;100608.31;;;9.95;100.00
11349;BME280;5729;43.570;27.826;2022-10-17T03:50:58;100610.22;;;9.86;100.00
11349;BME280;5729;43.570;27.826;2022-10-17T03:53:24;100615.16;;;9.93;100.00
11349;BME280;5729;43.570;27.826;2022-10-17T03:55:49;100617.19;;;9.87;100.00
11349;BME280;5729;43.570;27.826;2022-10-17T03:58:15;100623.06;;;9.89;100.00
11349;BME280;5729;43.570;27.826;2022-10-17T04:00:40;100621.31;;;9.93;100.00
11349;BME280;5729;43.570;27.826;2022-10-17T04:03:06;100610.69;;;9.88;100.00
11349;BME280;5729;43.570;27.826;2022-10-17T04:05:31;100613.09;;;9.98;100.00
11349;BME280;5729;43.570;27.826;2022-10-17T04:07:57;100617.38;;;9.99;100.00
11349;BME280;5729;43.570;27.826;2022-10-17T04:10:22;100609.69;;;9.67;100.00
11349;BME280;5729;43.570;27.826;2022-10-17T04:12:48;100621.75;;;9.78;100.00
11349;BME280;5729;43.570;27.826;2022-10-17T04:15:13;100620.00;;;9.82;100.00
11349;BME280;5729;43.570;27.826;2022-10-17T04:17:39;100624.28;;;9.74;100.00
11349;BME280;5729;43.570;27.826;2022-10-17T04:20:05;100620.28;;;9.63;100.00
11349;BME280;5729;43.570;27.826;2022-10-17T04:22:30;100619.50;;;9.63;100.00
11349;BME280;5729;43.570;27.826;2022-10-17T04:24:56;100617.88;;;9.53;100.00
11349;BME280;5729;43.570;27.826;2022-10-17T04:27:21;100624.25;;;9.57;100.00
11349;BME280;5729;43.570;27.826;2022-10-17T04:29:46;100616.38;;;9.78;100.00
11349;BME280;5729;43.570;27.826;2022-10-17T04:32:12;100591.16;;;9.57;100.00
11349;BME280;5729;43.570;27.826;2022-10-17T04:34:37;100622.19;;;9.63;100.00
11349;BME280;5729;43.570;27.826;2022-10-17T04:37:03;100617.63;;;9.72;100.00
11349;BME280;5729;43.570;27.826;2022-10-17T04:39:28;100619.69;;;9.66;100.00
11349;BME280;5729;43.570;27.826;2022-10-17T04:41:54;100624.88;;;9.63;100.00
11349;BME280;5729;43.570;27.826;2022-10-17T04:44:21;100617.28;;;9.65;100.00
11349;BME280;5729;43.570;27.826;2022-10-17T04:46:46;100623.56;;;9.52;100.00
11349;BME280;5729;43.570;27.826;2022-10-17T04:49:12;100619.97;;;9.65;100.00
11349;BME280;5729;43.570;27.826;2022-10-17T04:51:37;100623.59;;;9.60;100.00
11349;BME280;5729;43.570;27.826;2022-10-17T04:54:03;100635.34;;;9.64;100.00
11349;BME280;5729;43.570;27.826;2022-10-17T04:56:28;100634.41;;;9.69;100.00
11349;BME280;5729;43.570;27.826;2022-10-17T04:58:54;100639.31;;;9.67;100.00
11349;BME280;5729;43.570;27.826;2022-10-17T05:01:21;100633.31;;;9.70;100.00
11349;BME280;5729;43.570;27.826;2022-10-17T05:03:47;100627.94;;;9.78;100.00
11349;BME280;5729;43.570;27.826;2022-10-17T05:06:21;100621.47;;;9.79;100.00
11349;BME280;5729;43.570;27.826;2022-10-17T05:08:47;100644.31;;;9.99;100.00
11349;BME280;5729;43.570;27.826;2022-10-17T05:11:23;100640.50;;;10.09;100.00
11349;BME280;5729;43.570;27.826;2022-10-17T05:13:50;100638.13;;;10.07;100.00
11349;BME280;5729;43.570;27.826;2022-10-17T05:16:16;100644.50;;;10.11;100.00
11349;BME280;5729;43.570;27.826;2022-10-17T05:18:42;100642.63;;;10.21;100.00
11349;BME280;5729;43.570;27.826;2022-10-17T05:21:07;100645.63;;;10.28;100.00
11349;BME280;5729;43.570;27.826;2022-10-17T05:23:33;100656.44;;;10.45;100.00
11349;BME280;5729;43.570;27.826;2022-10-17T05:25:58;100649.16;;;10.54;100.00
11349;BME280;5729;43.570;27.826;2022-10-17T05:28:24;100665.34;;;10.71;100.00
11349;BME280;5729;43.570;27.826;2022-10-17T05:30:52;100667.69;;;10.81;100.00
11349;BME280;5729;43.570;27.826;2022-10-17T05:33:18;100670.06;;;10.74;100.00
11349;BME280;5729;43.570;27.826;2022-10-17T05:35:43;100675.13;;;11.02;100.00
11349;BME280;5729;43.570;27.826;2022-10-17T05:38:08;100670.66;;;11.14;100.00
11349;BME280;5729;43.570;27.826;2022-10-17T05:40:34;100681.28;;;11.11;100.00
11349;BME280;5729;43.570;27.826;2022-10-17T05:42:59;100670.19;;;11.12;100.00
11349;BME280;5729;43.570;27.826;2022-10-17T05:45:25;100686.88;;;11.06;100.00
11349;BME280;5729;43.570;27.826;2022-10-17T05:47:50;100691.41;;;11.31;100.00
11349;BME280;5729;43.570;27.826;2022-10-17T05:50:16;100665.25;;;11.14;100.00
11349;BME280;5729;43.570;27.826;2022-10-17T05:52:42;100690.91;;;11.46;100.00
11349;BME280;5729;43.570;27.826;2022-10-17T05:55:07;100697.75;;;11.35;100.00
11349;BME280;5729;43.570;27.826;2022-10-17T05:57:33;100693.47;;;11.34;100.00
11349;BME280;5729;43.570;27.826;2022-10-17T05:59:58;100707.09;;;11.46;100.00
11349;BME280;5729;43.570;27.826;2022-10-17T06:02:25;100710.16;;;11.74;100.00
11349;BME280;5729;43.570;27.826;2022-10-17T06:04:50;100715.84;;;11.90;100.00
11349;BME280;5729;43.570;27.826;2022-10-17T06:07:15;100715.44;;;12.09;100.00
11349;BME280;5729;43.570;27.826;2022-10-17T06:09:41;100718.50;;;12.07;100.00
11349;BME280;5729;43.570;27.826;2022-10-17T06:12:07;100721.13;;;12.16;100.00
11349;BME280;5729;43.570;27.826;2022-10-17T06:14:33;100717.78;;;12.19;100.00
11349;BME280;5729;43.570;27.826;2022-10-17T06:16:58;100728.41;;;12.24;100.00
11349;BME280;5729;43.570;27.826;2022-10-17T06:19:24;100724.09;;;12.23;100.00
11349;BME280;5729;43.570;27.826;2022-10-17T06:21:49;100708.50;;;11.99;100.00
11349;BME280;5729;43.570;27.826;2022-10-17T06:24:15;100734.66;;;12.16;100.00
11349;BME280;5729;43.570;27.826;2022-10-17T06:26:41;100738.16;;;12.16;100.00
11349;BME280;5729;43.570;27.826;2022-10-17T06:29:06;100731.94;;;12.16;100.00
11349;BME280;5729;43.570;27.826;2022-10-17T06:31:32;100737.19;;;12.12;100.00
11349;BME280;5729;43.570;27.826;2022-10-17T06:33:57;100737.69;;;12.14;100.00
11349;BME280;5729;43.570;27.826;2022-10-17T06:36:23;100742.75;;;12.16;100.00
11349;BME280;5729;43.570;27.826;2022-10-17T06:38:49;100739.72;;;12.17;100.00
11349;BME280;5729;43.570;27.826;2022-10-17T06:41:15;100738.63;;;12.10;100.00
11349;BME280;5729;43.570;27.826;2022-10-17T06:43:44;100737.63;;;12.23;100.00
11349;BME280;5729;43.570;27.826;2022-10-17T06:46:11;100738.56;;;12.27;100.00
11349;BME280;5729;43.570;27.826;2022-10-17T06:48:37;100739.31;;;12.36;100.00
11349;BME280;5729;43.570;27.826;2022-10-17T06:51:03;100734.84;;;12.40;100.00
11349;BME280;5729;43.570;27.826;2022-10-17T06:53:32;100724.34;;;12.39;100.00
11349;BME280;5729;43.570;27.826;2022-10-17T06:55:58;100736.47;;;12.53;100.00
11349;BME280;5729;43.570;27.826;2022-10-17T06:58:35;100743.75;;;12.61;100.00
11349;BME280;5729;43.570;27.826;2022-10-17T07:01:10;100742.25;;;12.72;100.00
11349;BME280;5729;43.570;27.826;2022-10-17T07:03:36;100735.16;;;12.80;100.00
11349;BME280;5729;43.570;27.826;2022-10-17T07:09:05;100725.00;;;12.98;100.00
11349;BME280;5729;43.570;27.826;2022-10-17T07:11:32;100748.25;;;13.20;100.00
11349;BME280;5729;43.570;27.826;2022-10-17T07:13:58;100740.59;;;13.34;100.00
11349;BME280;5729;43.570;27.826;2022-10-17T07:16:24;100741.44;;;13.47;100.00
11349;BME280;5729;43.570;27.826;2022-10-17T07:18:50;100751.16;;;13.60;100.00
11349;BME280;5729;43.570;27.826;2022-10-17T07:21:16;100747.56;;;13.68;100.00
11349;BME280;5729;43.570;27.826;2022-10-17T07:23:42;100756.75;;;13.75;100.00
11349;BME280;5729;43.570;27.826;2022-10-17T07:26:10;100739.13;;;13.81;100.00
11349;BME280;5729;43.570;27.826;2022-10-17T07:28:38;100749.06;;;14.02;100.00
11349;BME280;5729;43.570;27.826;2022-10-17T07:31:17;100744.09;;;14.16;100.00
11349;BME280;5729;43.570;27.826;2022-10-17T07:33:43;100744.31;;;14.35;100.00
11349;BME280;5729;43.570;27.826;2022-10-17T07:36:09;100741.63;;;14.47;100.00
11349;BME280;5729;43.570;27.826;2022-10-17T07:38:35;100738.53;;;14.61;100.00
11349;BME280;5729;43.570;27.826;2022-10-17T07:41:04;100739.84;;;14.79;100.00
11349;BME280;5729;43.570;27.826;2022-10-17T07:43:30;100733.47;;;15.00;100.00
11349;BME280;5729;43.570;27.826;2022-10-17T07:45:56;100731.53;;;15.44;100.00
11349;BME280;5729;43.570;27.826;2022-10-17T07:48:23;100739.56;;;16.50;100.00
11349;BME280;5729;43.570;27.826;2022-10-17T07:50:49;100735.47;;;18.02;100.00
11349;BME280;5729;43.570;27.826;2022-10-17T07:53:15;100737.00;;;19.49;100.00
11349;BME280;5729;43.570;27.826;2022-10-17T07:55:41;100720.31;;;20.78;88.93
11349;BME280;5729;43.570;27.826;2022-10-17T07:58:08;100729.19;;;22.07;72.68
11349;BME280;5729;43.570;27.826;2022-10-17T08:00:35;100738.44;;;22.88;64.40
11349;BME280;5729;43.570;27.826;2022-10-17T08:03:00;100734.00;;;23.71;60.06
11349;BME280;5729;43.570;27.826;2022-10-17T08:05:28;100737.13;;;24.17;56.11
11349;BME280;5729;43.570;27.826;2022-10-17T08:07:53;100734.28;;;25.00;53.92
11349;BME280;5729;43.570;27.826;2022-10-17T08:10:19;100734.06;;;25.71;49.31
11349;BME280;5729;43.570;27.826;2022-10-17T08:12:44;100737.94;;;26.20;47.86
11349;BME280;5729;43.570;27.826;2022-10-17T08:15:10;100733.09;;;26.48;45.44
11349;BME280;5729;43.570;27.826;2022-10-17T08:17:36;100728.69;;;26.30;46.21
11349;BME280;5729;43.570;27.826;2022-10-17T08:20:04;100723.47;;;26.95;46.00
11349;BME280;5729;43.570;27.826;2022-10-17T08:22:30;100730.34;;;26.48;45.68
11349;BME280;5729;43.570;27.826;2022-10-17T08:24:56;100727.16;;;26.49;46.50
11349;BME280;5729;43.570;27.826;2022-10-17T08:27:21;100730.88;;;27.34;45.19
11349;BME280;5729;43.570;27.826;2022-10-17T08:29:52;100737.13;;;27.55;43.89
11349;BME280;5729;43.570;27.826;2022-10-17T08:32:24;100725.13;;;27.94;42.77
11349;BME280;5729;43.570;27.826;2022-10-17T08:34:51;100728.88;;;27.87;41.88
11349;BME280;5729;43.570;27.826;2022-10-17T08:37:17;100740.00;;;26.59;45.05
11349;BME280;5729;43.570;27.826;2022-10-17T08:39:42;100734.22;;;25.33;48.11
11349;BME280;5729;43.570;27.826;2022-10-17T08:47:43;100735.50;;;24.27;59.39
11349;BME280;5729;43.570;27.826;2022-10-17T08:52:53;100742.59;;;25.26;52.26
11349;BME280;5729;43.570;27.826;2022-10-17T08:55:41;100747.38;;;24.58;51.54
11349;BME280;5729;43.570;27.826;2022-10-17T08:58:30;100740.75;;;24.11;52.94
11349;BME280;5729;43.570;27.826;2022-10-17T09:06:14;100747.13;;;26.37;45.73
11349;BME280;5729;43.570;27.826;2022-10-17T09:12:10;100742.56;;;26.27;47.01
11349;BME280;5729;43.570;27.826;2022-10-17T09:20:18;100740.03;;;30.35;36.08
11349;BME280;5729;43.570;27.826;2022-10-17T09:23:01;100748.75;;;31.12;33.58
11349;BME280;5729;43.570;27.826;2022-10-17T09:25:31;100748.34;;;30.13;34.79
11349;BME280;5729;43.570;27.826;2022-10-17T09:28:10;100742.84;;;29.75;34.79
11349;BME280;5729;43.570;27.826;2022-10-17T09:33:27;100746.28;;;31.63;33.08
11349;BME280;5729;43.570;27.826;2022-10-17T09:35:55;100746.84;;;31.39;31.47
11349;BME280;5729;43.570;27.826;2022-10-17T09:38:23;100747.09;;;30.71;33.95
11349;BME280;5729;43.570;27.826;2022-10-17T09:41:00;100746.28;;;32.30;31.76
11349;BME280;5729;43.570;27.826;2022-10-17T09:43:27;100744.38;;;32.00;31.33
11349;BME280;5729;43.570;27.826;2022-10-17T09:46:09;100747.56;;;31.22;32.10
11349;BME280;5729;43.570;27.826;2022-10-17T09:48:41;100729.34;;;30.12;32.30
11349;BME280;5729;43.570;27.826;2022-10-17T09:51:10;100729.44;;;29.48;34.50
11349;BME280;5729;43.570;27.826;2022-10-17T09:53:38;100735.41;;;30.19;33.67
11349;BME280;5729;43.570;27.826;2022-10-17T09:56:13;100734.13;;;30.98;32.01
11349;BME280;5729;43.570;27.826;2022-10-17T09:58:46;100732.59;;;31.07;31.82
11349;BME280;5729;43.570;27.826;2022-10-17T10:01:22;100730.16;;;32.34;31.54
11349;BME280;5729;43.570;27.826;2022-10-17T10:03:49;100723.28;;;32.63;29.94
11349;BME280;5729;43.570;27.826;2022-10-17T10:06:32;100719.75;;;32.71;29.25
11349;BME280;5729;43.570;27.826;2022-10-17T10:08:58;100725.31;;;31.31;31.27
11349;BME280;5729;43.570;27.826;2022-10-17T10:14:14;100723.78;;;32.16;29.03
11349;BME280;5729;43.570;27.826;2022-10-17T10:16:44;100727.72;;;31.11;30.56
11349;BME280;5729;43.570;27.826;2022-10-17T10:19:36;100718.72;;;31.56;30.98
11349;BME280;5729;43.570;27.826;2022-10-17T10:22:14;100725.03;;;32.33;30.45
11349;BME280;5729;43.570;27.826;2022-10-17T10:24:40;100722.50;;;32.80;29.93
11349;BME280;5729;43.570;27.826;2022-10-17T10:27:12;100717.06;;;33.19;29.20
11349;BME280;5729;43.570;27.826;2022-10-17T10:29:41;100715.69;;;33.80;26.93
11349;BME280;5729;43.570;27.826;2022-10-17T10:32:20;100719.59;;;32.57;27.89
11349;BME280;5729;43.570;27.826;2022-10-17T10:37:27;100707.50;;;32.60;29.72
11349;BME280;5729;43.570;27.826;2022-10-17T10:40:06;100694.78;;;33.10;28.15
11349;BME280;5729;43.570;27.826;2022-10-17T10:42:40;100711.53;;;33.10;28.09
11349;BME280;5729;43.570;27.826;2022-10-17T10:51:07;100697.91;;;33.93;27.20
11349;BME280;5729;43.570;27.826;2022-10-17T11:01:34;100694.59;;;32.80;29.00
11349;BME280;5729;43.570;27.826;2022-10-17T11:04:34;100697.97;;;32.85;29.10
11349;BME280;5729;43.570;27.826;2022-10-17T11:07:10;100690.06;;;33.25;27.87
11349;BME280;5729;43.570;27.826;2022-10-17T11:12:27;100677.84;;;32.80;27.86
11349;BME280;5729;43.570;27.826;2022-10-17T11:15:18;100677.69;;;32.66;28.35
11349;BME280;5729;43.570;27.826;2022-10-17T11:17:56;100672.50;;;32.22;28.40
11349;BME280;5729;43.570;27.826;2022-10-17T11:25:47;100680.91;;;31.05;29.78
11349;BME280;5729;43.570;27.826;2022-10-17T11:28:20;100676.03;;;30.79;29.87
11349;BME280;5729;43.570;27.826;2022-10-17T11:33:56;100672.25;;;31.44;29.25
11349;BME280;5729;43.570;27.826;2022-10-17T11:36:32;100674.69;;;30.92;30.00
11349;BME280;5729;43.570;27.826;2022-10-17T11:39:13;100668.94;;;29.78;30.78
11349;BME280;5729;43.570;27.826;2022-10-17T11:41:47;100673.19;;;28.27;32.37
11349;BME280;5729;43.570;27.826;2022-10-17T11:44:37;100672.50;;;28.64;32.66
11349;BME280;5729;43.570;27.826;2022-10-17T11:50:10;100666.56;;;29.89;31.23
11349;BME280;5729;43.570;27.826;2022-10-17T11:52:44;100658.78;;;30.18;30.63
11349;BME280;5729;43.570;27.826;2022-10-17T11:55:24;100653.84;;;30.66;30.19
11349;BME280;5729;43.570;27.826;2022-10-17T12:06:24;100663.63;;;29.92;31.50
11349;BME280;5729;43.570;27.826;2022-10-17T12:09:01;100662.00;;;30.17;30.23
11349;BME280;5729;43.570;27.826;2022-10-17T12:13:59;100657.88;;;30.21;30.18
11349;BME280;5729;43.570;27.826;2022-10-17T12:21:24;100632.78;;;29.78;31.25
11349;BME280;5729;43.570;27.826;2022-10-17T12:23:52;100655.25;;;29.71;32.03
11349;BME280;5729;43.570;27.826;2022-10-17T12:26:28;100636.44;;;29.40;32.35
11349;BME280;5729;43.570;27.826;2022-10-17T12:29:15;100650.31;;;30.00;31.77
11349;BME280;5729;43.570;27.826;2022-10-17T12:31:50;100655.41;;;29.67;32.21
11349;BME280;5729;43.570;27.826;2022-10-17T12:34:16;100657.34;;;29.19;32.88
11349;BME280;5729;43.570;27.826;2022-10-17T12:36:45;100651.78;;;29.19;32.78
11349;BME280;5729;43.570;27.826;2022-10-17T13:03:17;100656.78;;;28.45;32.43
11349;BME280;5729;43.570;27.826;2022-10-17T13:05:50;100648.19;;;27.36;34.16
11349;BME280;5729;43.570;27.826;2022-10-17T13:08:26;100662.44;;;27.02;35.12
11349;BME280;5729;43.570;27.826;2022-10-17T13:10:53;100664.31;;;26.30;35.70
11349;BME280;5729;43.570;27.826;2022-10-17T13:13:20;100657.56;;;25.68;37.18
11349;BME280;5729;43.570;27.826;2022-10-17T13:15:50;100652.97;;;25.35;37.88
11349;BME280;5729;43.570;27.826;2022-10-17T13:18:23;100655.31;;;25.09;38.60
11349;BME280;5729;43.570;27.826;2022-10-17T13:23:33;100651.38;;;24.49;40.00
11349;BME280;5729;43.570;27.826;2022-10-17T13:26:09;100654.72;;;24.34;40.83
11349;BME280;5729;43.570;27.826;2022-10-17T13:28:36;100655.78;;;24.06;42.30
11349;BME280;5729;43.570;27.826;2022-10-17T13:31:02;100650.63;;;23.70;42.97
11349;BME280;5729;43.570;27.826;2022-10-17T13:33:34;100654.47;;;23.35;43.75
11349;BME280;5729;43.570;27.826;2022-10-17T13:36:02;100660.59;;;23.02;45.03
11349;BME280;5729;43.570;27.826;2022-10-17T13:38:30;100660.34;;;22.64;46.24
11349;BME280;5729;43.570;27.826;2022-10-17T13:40:57;100667.91;;;22.42;47.44
11349;BME280;5729;43.570;27.826;2022-10-17T13:43:23;100671.13;;;22.23;47.94
11349;BME280;5729;43.570;27.826;2022-10-17T13:45:51;100662.50;;;21.96;50.18
11349;BME280;5729;43.570;27.826;2022-10-17T13:48:21;100668.00;;;21.86;50.31
11349;BME280;5729;43.570;27.826;2022-10-17T13:50:50;100670.78;;;21.64;52.01
11349;BME280;5729;43.570;27.826;2022-10-17T13:53:25;100671.13;;;21.45;53.49
11349;BME280;5729;43.570;27.826;2022-10-17T13:55:59;100669.56;;;21.37;54.39
11349;BME280;5729;43.570;27.826;2022-10-17T13:58:30;100670.34;;;21.27;56.35
11349;BME280;5729;43.570;27.826;2022-10-17T14:00:56;100664.41;;;21.14;56.45
11349;BME280;5729;43.570;27.826;2022-10-17T14:03:22;100670.28;;;21.02;58.43
11349;BME280;5729;43.570;27.826;2022-10-17T14:06:06;100673.00;;;20.95;59.52
11349;BME280;5729;43.570;27.826;2022-10-17T14:08:36;100666.31;;;20.82;62.05
11349;BME280;5729;43.570;27.826;2022-10-17T14:11:12;100668.66;;;20.83;62.08
11349;BME280;5729;43.570;27.826;2022-10-17T14:13:38;100668.25;;;20.78;62.52
11349;BME280;5729;43.570;27.826;2022-10-17T14:16:04;100665.44;;;20.60;68.96
11349;BME280;5729;43.570;27.826;2022-10-17T14:18:34;100672.03;;;20.45;75.24
11349;BME280;5729;43.570;27.826;2022-10-17T14:21:01;100677.06;;;20.36;80.23
11349;BME280;5729;43.570;27.826;2022-10-17T14:23:41;100674.28;;;20.28;83.14
11349;BME280;5729;43.570;27.826;2022-10-17T14:26:18;100675.78;;;20.19;87.24
11349;BME280;5729;43.570;27.826;2022-10-17T14:29:05;100676.16;;;20.17;88.44
11349;BME280;5729;43.570;27.826;2022-10-17T14:31:34;100677.22;;;19.99;92.06
11349;BME280;5729;43.570;27.826;2022-10-17T14:34:02;100692.09;;;19.98;95.56
11349;BME280;5729;43.570;27.826;2022-10-17T14:36:39;100678.34;;;19.90;96.82
11349;BME280;5729;43.570;27.826;2022-10-17T14:39:14;100686.91;;;19.89;98.90
11349;BME280;5729;43.570;27.826;2022-10-17T14:41:43;100690.78;;;19.81;98.77
11349;BME280;5729;43.570;27.826;2022-10-17T14:44:24;100705.88;;;19.64;100.00
11349;BME280;5729;43.570;27.826;2022-10-17T14:47:15;100698.78;;;19.56;100.00
11349;BME280;5729;43.570;27.826;2022-10-17T14:49:42;100695.09;;;19.41;100.00
11349;BME280;5729;43.570;27.826;2022-10-17T14:54:40;100709.34;;;19.20;100.00
11349;BME280;5729;43.570;27.826;2022-10-17T14:57:22;100708.91;;;19.15;100.00
11349;BME280;5729;43.570;27.826;2022-10-17T14:59:48;100706.88;;;19.08;100.00
11349;BME280;5729;43.570;27.826;2022-10-17T15:02:13;100710.97;;;18.92;100.00
11349;BME280;5729;43.570;27.826;2022-10-17T15:04:39;100712.84;;;18.84;100.00
11349;BME280;5729;43.570;27.826;2022-10-17T15:07:05;100716.09;;;18.63;100.00
11349;BME280;5729;43.570;27.826;2022-10-17T15:09:30;100728.84;;;18.56;100.00
11349;BME280;5729;43.570;27.826;2022-10-17T15:11:59;100722.38;;;18.41;100.00
11349;BME280;5729;43.570;27.826;2022-10-17T15:14:29;100732.91;;;18.39;100.00